YNL weather

Points North Landing Airport
Points North Landing, Saskatchewan, Canada

Public forecast

Using degrees Celsius for public forecast. Weather courtesy of forecast.io.

METAR (pilot weather report)

Closest report is Key Lake Airport, 78.6 nm (145.5 km) SW. Retrieved 2019/05/24 11:00 UTC (36 minutes ago):

CYKJ 241100Z AUTO 07009KT 9SM OVC007 03/02 A2993 RMK SLP159

TAF (pilot weather forecast)

Closest forecast is Key Lake Airport, 78.6 nm (145.5 km) SW. Retrieved 2019/05/24 10:57 UTC (39 minutes ago):

TAF TAF CYKJ 240953Z 2410/2422 08008KT P6SM OVC007 TEMPO 2410/2415 SCT007 OVC012 FM241500 09010KT P6SM OVC020 TEMPO 2415/2422 OVC030 RMK FCST BASED ON AUTO OBS. NXT FCST BY 241300Z